sensor_id;sensor_type;location;lat;lon;timestamp;P1;durP1;ratioP1;P2;durP2;ratioP2
50988;SDS011;37008;52.210;21.112;2022-12-18T00:01:29;58.03;;;31.63;;
50988;SDS011;37008;52.210;21.112;2022-12-18T00:03:58;55.03;;;28.58;;
50988;SDS011;37008;52.210;21.112;2022-12-18T00:06:24;51.20;;;29.30;;
50988;SDS011;37008;52.210;21.112;2022-12-18T00:08:51;53.25;;;32.03;;
50988;SDS011;37008;52.210;21.112;2022-12-18T00:11:19;53.45;;;28.98;;
50988;SDS011;37008;52.210;21.112;2022-12-18T00:13:47;47.60;;;28.75;;
50988;SDS011;37008;52.210;21.112;2022-12-18T00:16:14;50.35;;;29.20;;
50988;SDS011;37008;52.210;21.112;2022-12-18T00:18:42;52.05;;;28.83;;
50988;SDS011;37008;52.210;21.112;2022-12-18T00:21:08;54.42;;;29.88;;
50988;SDS011;37008;52.210;21.112;2022-12-18T00:23:35;52.42;;;30.55;;
50988;SDS011;37008;52.210;21.112;2022-12-18T00:26:04;47.40;;;28.65;;
50988;SDS011;37008;52.210;21.112;2022-12-18T00:28:31;55.30;;;31.90;;
50988;SDS011;37008;52.210;21.112;2022-12-18T00:31:15;49.70;;;28.95;;
50988;SDS011;37008;52.210;21.112;2022-12-18T00:33:43;49.60;;;28.17;;
50988;SDS011;37008;52.210;21.112;2022-12-18T00:36:13;48.92;;;29.33;;
50988;SDS011;37008;52.210;21.112;2022-12-18T00:38:41;51.42;;;29.38;;
50988;SDS011;37008;52.210;21.112;2022-12-18T00:41:07;48.03;;;29.42;;
50988;SDS011;37008;52.210;21.112;2022-12-18T00:43:34;53.78;;;31.23;;
50988;SDS011;37008;52.210;21.112;2022-12-18T00:46:01;57.28;;;30.80;;
50988;SDS011;37008;52.210;21.112;2022-12-18T00:48:26;51.15;;;28.67;;
50988;SDS011;37008;52.210;21.112;2022-12-18T00:50:52;51.70;;;29.05;;
50988;SDS011;37008;52.210;21.112;2022-12-18T00:53:17;50.70;;;29.75;;
50988;SDS011;37008;52.210;21.112;2022-12-18T00:55:43;53.53;;;28.95;;
50988;SDS011;37008;52.210;21.112;2022-12-18T00:58:10;47.97;;;28.60;;
50988;SDS011;37008;52.210;21.112;2022-12-18T01:00:37;46.00;;;25.30;;
50988;SDS011;37008;52.210;21.112;2022-12-18T01:03:03;45.03;;;25.70;;
50988;SDS011;37008;52.210;21.112;2022-12-18T01:05:29;44.13;;;24.88;;
50988;SDS011;37008;52.210;21.112;2022-12-18T01:07:55;41.92;;;21.90;;
50988;SDS011;37008;52.210;21.112;2022-12-18T01:10:21;36.97;;;21.23;;
50988;SDS011;37008;52.210;21.112;2022-12-18T01:12:48;43.42;;;23.75;;
50988;SDS011;37008;52.210;21.112;2022-12-18T01:15:14;41.15;;;24.20;;
50988;SDS011;37008;52.210;21.112;2022-12-18T01:17:40;38.67;;;22.83;;
50988;SDS011;37008;52.210;21.112;2022-12-18T01:20:07;38.60;;;22.45;;
50988;SDS011;37008;52.210;21.112;2022-12-18T01:22:34;35.63;;;19.67;;
50988;SDS011;37008;52.210;21.112;2022-12-18T01:25:00;40.75;;;23.33;;
50988;SDS011;37008;52.210;21.112;2022-12-18T01:27:26;41.75;;;23.15;;
50988;SDS011;37008;52.210;21.112;2022-12-18T01:29:52;43.30;;;23.08;;
50988;SDS011;37008;52.210;21.112;2022-12-18T01:32:17;40.83;;;22.60;;
50988;SDS011;37008;52.210;21.112;2022-12-18T01:34:43;44.95;;;23.85;;
50988;SDS011;37008;52.210;21.112;2022-12-18T01:37:09;37.88;;;22.67;;
50988;SDS011;37008;52.210;21.112;2022-12-18T01:39:35;40.33;;;22.52;;
50988;SDS011;37008;52.210;21.112;2022-12-18T01:42:12;40.40;;;22.67;;
50988;SDS011;37008;52.210;21.112;2022-12-18T01:47:18;37.88;;;21.52;;
50988;SDS011;37008;52.210;21.112;2022-12-18T01:49:48;37.13;;;21.50;;
50988;SDS011;37008;52.210;21.112;2022-12-18T01:52:14;39.83;;;22.70;;
50988;SDS011;37008;52.210;21.112;2022-12-18T01:54:41;39.00;;;20.27;;
50988;SDS011;37008;52.210;21.112;2022-12-18T01:57:07;35.70;;;21.83;;
50988;SDS011;37008;52.210;21.112;2022-12-18T01:59:33;37.22;;;21.23;;
50988;SDS011;37008;52.210;21.112;2022-12-18T02:02:00;42.95;;;23.35;;
50988;SDS011;37008;52.210;21.112;2022-12-18T02:04:27;39.33;;;22.55;;
50988;SDS011;37008;52.210;21.112;2022-12-18T02:10:01;37.00;;;21.38;;
50988;SDS011;37008;52.210;21.112;2022-12-18T02:12:34;37.45;;;21.83;;
50988;SDS011;37008;52.210;21.112;2022-12-18T02:18:25;41.08;;;23.42;;
50988;SDS011;37008;52.210;21.112;2022-12-18T02:20:58;47.92;;;24.42;;
50988;SDS011;37008;52.210;21.112;2022-12-18T02:24:04;39.05;;;23.15;;
50988;SDS011;37008;52.210;21.112;2022-12-18T02:26:50;42.00;;;23.63;;
50988;SDS011;37008;52.210;21.112;2022-12-18T02:29:22;43.92;;;23.10;;
50988;SDS011;37008;52.210;21.112;2022-12-18T02:31:53;43.03;;;23.80;;
50988;SDS011;37008;52.210;21.112;2022-12-18T02:34:28;35.05;;;17.58;;
50988;SDS011;37008;52.210;21.112;2022-12-18T02:36:57;39.38;;;21.50;;
50988;SDS011;37008;52.210;21.112;2022-12-18T02:39:25;41.45;;;23.23;;
50988;SDS011;37008;52.210;21.112;2022-12-18T02:41:52;37.92;;;21.02;;
50988;SDS011;37008;52.210;21.112;2022-12-18T02:44:17;35.83;;;20.85;;
50988;SDS011;37008;52.210;21.112;2022-12-18T02:49:17;36.13;;;19.85;;
50988;SDS011;37008;52.210;21.112;2022-12-18T02:51:55;35.60;;;19.77;;
50988;SDS011;37008;52.210;21.112;2022-12-18T02:54:47;37.08;;;19.50;;
50988;SDS011;37008;52.210;21.112;2022-12-18T02:57:44;34.42;;;18.05;;
50988;SDS011;37008;52.210;21.112;2022-12-18T03:00:21;33.38;;;18.13;;
50988;SDS011;37008;52.210;21.112;2022-12-18T03:05:38;42.33;;;20.90;;
50988;SDS011;37008;52.210;21.112;2022-12-18T03:08:14;30.15;;;16.67;;
50988;SDS011;37008;52.210;21.112;2022-12-18T03:13:31;29.60;;;18.58;;
50988;SDS011;37008;52.210;21.112;2022-12-18T03:16:00;32.42;;;15.77;;
50988;SDS011;37008;52.210;21.112;2022-12-18T03:18:47;39.20;;;18.27;;
50988;SDS011;37008;52.210;21.112;2022-12-18T03:21:17;38.70;;;19.42;;
50988;SDS011;37008;52.210;21.112;2022-12-18T03:23:48;37.03;;;19.27;;
50988;SDS011;37008;52.210;21.112;2022-12-18T03:26:16;33.05;;;17.02;;
50988;SDS011;37008;52.210;21.112;2022-12-18T03:28:46;25.23;;;13.15;;
50988;SDS011;37008;52.210;21.112;2022-12-18T03:31:23;33.40;;;17.48;;
50988;SDS011;37008;52.210;21.112;2022-12-18T03:36:19;36.40;;;19.13;;
50988;SDS011;37008;52.210;21.112;2022-12-18T03:38:45;30.35;;;18.35;;
50988;SDS011;37008;52.210;21.112;2022-12-18T03:41:24;37.35;;;18.45;;
50988;SDS011;37008;52.210;21.112;2022-12-18T03:46:51;37.67;;;19.40;;
50988;SDS011;37008;52.210;21.112;2022-12-18T03:49:40;35.13;;;18.45;;
50988;SDS011;37008;52.210;21.112;2022-12-18T03:52:20;32.92;;;18.80;;
50988;SDS011;37008;52.210;21.112;2022-12-18T03:54:58;29.15;;;16.30;;
50988;SDS011;37008;52.210;21.112;2022-12-18T03:57:26;31.95;;;16.33;;
50988;SDS011;37008;52.210;21.112;2022-12-18T03:59:56;31.58;;;16.77;;
50988;SDS011;37008;52.210;21.112;2022-12-18T04:02:25;31.85;;;16.75;;
50988;SDS011;37008;52.210;21.112;2022-12-18T04:04:52;31.17;;;16.35;;
50988;SDS011;37008;52.210;21.112;2022-12-18T04:07:21;29.52;;;16.98;;
50988;SDS011;37008;52.210;21.112;2022-12-18T04:09:48;31.02;;;15.57;;
50988;SDS011;37008;52.210;21.112;2022-12-18T04:12:15;33.63;;;16.08;;
50988;SDS011;37008;52.210;21.112;2022-12-18T04:14:40;30.73;;;15.45;;
50988;SDS011;37008;52.210;21.112;2022-12-18T04:17:06;32.25;;;17.13;;
50988;SDS011;37008;52.210;21.112;2022-12-18T04:19:32;33.90;;;16.25;;
50988;SDS011;37008;52.210;21.112;2022-12-18T04:21:57;33.65;;;17.58;;
50988;SDS011;37008;52.210;21.112;2022-12-18T04:24:23;32.55;;;18.20;;
50988;SDS011;37008;52.210;21.112;2022-12-18T04:26:48;29.27;;;17.48;;
50988;SDS011;37008;52.210;21.112;2022-12-18T04:29:14;31.48;;;18.15;;
50988;SDS011;37008;52.210;21.112;2022-12-18T04:31:39;30.05;;;16.75;;
50988;SDS011;37008;52.210;21.112;2022-12-18T04:34:05;30.95;;;16.90;;
50988;SDS011;37008;52.210;21.112;2022-12-18T04:36:31;33.40;;;17.15;;
50988;SDS011;37008;52.210;21.112;2022-12-18T04:38:56;24.48;;;13.05;;
50988;SDS011;37008;52.210;21.112;2022-12-18T04:41:22;30.75;;;16.73;;
50988;SDS011;37008;52.210;21.112;2022-12-18T04:43:47;27.33;;;16.23;;
50988;SDS011;37008;52.210;21.112;2022-12-18T04:46:13;32.35;;;18.65;;
50988;SDS011;37008;52.210;21.112;2022-12-18T04:48:38;29.48;;;16.35;;
50988;SDS011;37008;52.210;21.112;2022-12-18T04:51:04;31.13;;;18.20;;
50988;SDS011;37008;52.210;21.112;2022-12-18T04:53:31;31.88;;;17.08;;
50988;SDS011;37008;52.210;21.112;2022-12-18T04:56:08;37.15;;;17.17;;
50988;SDS011;37008;52.210;21.112;2022-12-18T04:58:36;34.83;;;17.13;;
50988;SDS011;37008;52.210;21.112;2022-12-18T05:01:02;32.25;;;16.88;;
50988;SDS011;37008;52.210;21.112;2022-12-18T05:03:28;33.88;;;17.45;;
50988;SDS011;37008;52.210;21.112;2022-12-18T05:05:54;30.20;;;16.13;;
50988;SDS011;37008;52.210;21.112;2022-12-18T05:08:20;30.40;;;16.45;;
50988;SDS011;37008;52.210;21.112;2022-12-18T05:10:45;33.00;;;16.77;;
50988;SDS011;37008;52.210;21.112;2022-12-18T05:13:11;23.75;;;12.65;;
50988;SDS011;37008;52.210;21.112;2022-12-18T05:15:36;33.20;;;18.48;;
50988;SDS011;37008;52.210;21.112;2022-12-18T05:18:02;31.15;;;17.40;;
50988;SDS011;37008;52.210;21.112;2022-12-18T05:20:28;33.50;;;18.75;;
50988;SDS011;37008;52.210;21.112;2022-12-18T05:22:54;33.00;;;17.17;;
50988;SDS011;37008;52.210;21.112;2022-12-18T05:25:20;37.88;;;18.13;;
50988;SDS011;37008;52.210;21.112;2022-12-18T05:27:47;31.27;;;16.65;;
50988;SDS011;37008;52.210;21.112;2022-12-18T05:30:13;29.85;;;17.33;;
50988;SDS011;37008;52.210;21.112;2022-12-18T05:32:39;31.10;;;17.25;;
50988;SDS011;37008;52.210;21.112;2022-12-18T05:35:06;33.50;;;17.95;;
50988;SDS011;37008;52.210;21.112;2022-12-18T05:37:33;28.98;;;18.02;;
50988;SDS011;37008;52.210;21.112;2022-12-18T05:39:59;32.45;;;18.10;;
50988;SDS011;37008;52.210;21.112;2022-12-18T05:42:24;34.33;;;18.65;;
50988;SDS011;37008;52.210;21.112;2022-12-18T05:44:50;33.67;;;18.58;;
50988;SDS011;37008;52.210;21.112;2022-12-18T05:47:15;33.63;;;17.55;;
50988;SDS011;37008;52.210;21.112;2022-12-18T05:49:41;31.17;;;16.25;;
50988;SDS011;37008;52.210;21.112;2022-12-18T05:52:06;35.05;;;17.92;;
50988;SDS011;37008;52.210;21.112;2022-12-18T05:54:32;34.92;;;18.38;;
50988;SDS011;37008;52.210;21.112;2022-12-18T05:56:58;35.30;;;19.02;;
50988;SDS011;37008;52.210;21.112;2022-12-18T05:59:23;37.20;;;19.77;;
50988;SDS011;37008;52.210;21.112;2022-12-18T06:01:51;34.03;;;19.13;;
50988;SDS011;37008;52.210;21.112;2022-12-18T06:04:16;38.08;;;20.75;;
50988;SDS011;37008;52.210;21.112;2022-12-18T06:06:42;39.00;;;20.90;;
50988;SDS011;37008;52.210;21.112;2022-12-18T06:09:08;34.35;;;19.30;;
50988;SDS011;37008;52.210;21.112;2022-12-18T06:11:35;45.13;;;20.95;;
50988;SDS011;37008;52.210;21.112;2022-12-18T06:14:02;42.03;;;22.35;;
50988;SDS011;37008;52.210;21.112;2022-12-18T06:16:29;51.55;;;23.98;;
50988;SDS011;37008;52.210;21.112;2022-12-18T06:18:56;48.03;;;24.25;;
50988;SDS011;37008;52.210;21.112;2022-12-18T06:21:23;40.67;;;19.95;;
50988;SDS011;37008;52.210;21.112;2022-12-18T06:23:48;39.20;;;20.30;;
50988;SDS011;37008;52.210;21.112;2022-12-18T06:26:14;41.03;;;21.00;;
50988;SDS011;37008;52.210;21.112;2022-12-18T06:28:40;44.38;;;21.60;;
50988;SDS011;37008;52.210;21.112;2022-12-18T06:31:06;48.63;;;24.95;;
50988;SDS011;37008;52.210;21.112;2022-12-18T06:33:32;48.40;;;25.33;;
50988;SDS011;37008;52.210;21.112;2022-12-18T06:35:59;45.92;;;23.38;;
50988;SDS011;37008;52.210;21.112;2022-12-18T06:38:36;50.92;;;24.02;;
50988;SDS011;37008;52.210;21.112;2022-12-18T06:41:08;51.47;;;23.63;;
50988;SDS011;37008;52.210;21.112;2022-12-18T06:43:34;59.78;;;26.60;;
50988;SDS011;37008;52.210;21.112;2022-12-18T06:46:00;54.53;;;25.50;;
50988;SDS011;37008;52.210;21.112;2022-12-18T06:48:26;54.60;;;25.98;;
50988;SDS011;37008;52.210;21.112;2022-12-18T06:50:52;63.15;;;26.75;;
50988;SDS011;37008;52.210;21.112;2022-12-18T06:53:17;58.33;;;28.38;;
50988;SDS011;37008;52.210;21.112;2022-12-18T06:55:43;65.35;;;30.77;;
50988;SDS011;37008;52.210;21.112;2022-12-18T06:58:08;70.97;;;32.00;;
50988;SDS011;37008;52.210;21.112;2022-12-18T07:00:34;72.45;;;30.55;;
50988;SDS011;37008;52.210;21.112;2022-12-18T07:03:00;69.32;;;32.25;;
50988;SDS011;37008;52.210;21.112;2022-12-18T07:05:25;72.57;;;33.20;;
50988;SDS011;37008;52.210;21.112;2022-12-18T07:07:51;77.00;;;32.50;;
50988;SDS011;37008;52.210;21.112;2022-12-18T07:10:17;72.03;;;32.90;;
50988;SDS011;37008;52.210;21.112;2022-12-18T07:12:42;71.22;;;34.70;;
50988;SDS011;37008;52.210;21.112;2022-12-18T07:15:08;74.63;;;29.20;;
50988;SDS011;37008;52.210;21.112;2022-12-18T07:17:34;75.72;;;33.95;;
50988;SDS011;37008;52.210;21.112;2022-12-18T07:19:59;81.25;;;32.65;;
50988;SDS011;37008;52.210;21.112;2022-12-18T07:22:25;68.45;;;31.15;;
50988;SDS011;37008;52.210;21.112;2022-12-18T07:24:52;73.55;;;30.48;;
50988;SDS011;37008;52.210;21.112;2022-12-18T07:27:18;82.65;;;32.35;;
50988;SDS011;37008;52.210;21.112;2022-12-18T07:29:43;74.05;;;30.25;;
50988;SDS011;37008;52.210;21.112;2022-12-18T07:32:09;72.60;;;31.33;;
50988;SDS011;37008;52.210;21.112;2022-12-18T07:34:35;75.15;;;30.50;;
50988;SDS011;37008;52.210;21.112;2022-12-18T07:37:00;71.55;;;28.02;;
50988;SDS011;37008;52.210;21.112;2022-12-18T07:39:26;70.93;;;30.80;;
50988;SDS011;37008;52.210;21.112;2022-12-18T07:41:51;76.82;;;32.13;;
50988;SDS011;37008;52.210;21.112;2022-12-18T07:44:35;69.70;;;30.30;;
50988;SDS011;37008;52.210;21.112;2022-12-18T07:47:02;73.38;;;29.08;;
50988;SDS011;37008;52.210;21.112;2022-12-18T07:49:28;73.88;;;30.60;;
50988;SDS011;37008;52.210;21.112;2022-12-18T07:51:55;81.90;;;30.45;;
50988;SDS011;37008;52.210;21.112;2022-12-18T07:54:21;79.53;;;31.67;;
50988;SDS011;37008;52.210;21.112;2022-12-18T07:56:47;69.10;;;28.77;;
50988;SDS011;37008;52.210;21.112;2022-12-18T07:59:13;73.65;;;30.20;;
50988;SDS011;37008;52.210;21.112;2022-12-18T08:01:39;69.57;;;29.95;;
50988;SDS011;37008;52.210;21.112;2022-12-18T08:04:04;62.08;;;28.15;;
50988;SDS011;37008;52.210;21.112;2022-12-18T08:06:30;73.43;;;31.02;;
50988;SDS011;37008;52.210;21.112;2022-12-18T08:08:56;68.82;;;28.85;;
50988;SDS011;37008;52.210;21.112;2022-12-18T08:11:22;73.50;;;30.88;;
50988;SDS011;37008;52.210;21.112;2022-12-18T08:13:49;54.78;;;21.10;;
50988;SDS011;37008;52.210;21.112;2022-12-18T08:16:15;69.00;;;29.83;;
50988;SDS011;37008;52.210;21.112;2022-12-18T08:18:42;68.35;;;31.77;;
50988;SDS011;37008;52.210;21.112;2022-12-18T08:21:08;72.28;;;32.00;;
50988;SDS011;37008;52.210;21.112;2022-12-18T08:23:35;72.38;;;30.27;;
50988;SDS011;37008;52.210;21.112;2022-12-18T08:26:01;67.43;;;31.45;;
50988;SDS011;37008;52.210;21.112;2022-12-18T08:28:27;69.47;;;30.60;;
50988;SDS011;37008;52.210;21.112;2022-12-18T08:30:52;68.22;;;30.70;;
50988;SDS011;37008;52.210;21.112;2022-12-18T08:33:18;71.00;;;31.65;;
50988;SDS011;37008;52.210;21.112;2022-12-18T08:35:44;61.90;;;29.27;;
50988;SDS011;37008;52.210;21.112;2022-12-18T08:38:09;72.53;;;30.52;;
50988;SDS011;37008;52.210;21.112;2022-12-18T08:40:35;71.57;;;33.25;;
50988;SDS011;37008;52.210;21.112;2022-12-18T08:43:01;68.10;;;30.38;;
50988;SDS011;37008;52.210;21.112;2022-12-18T08:45:45;38.30;;;16.20;;
50988;SDS011;37008;52.210;21.112;2022-12-18T08:48:10;65.63;;;29.15;;
50988;SDS011;37008;52.210;21.112;2022-12-18T08:50:36;68.72;;;31.27;;
50988;SDS011;37008;52.210;21.112;2022-12-18T08:53:02;72.25;;;31.58;;
50988;SDS011;37008;52.210;21.112;2022-12-18T08:55:27;71.38;;;32.55;;
50988;SDS011;37008;52.210;21.112;2022-12-18T08:57:53;69.93;;;31.85;;
50988;SDS011;37008;52.210;21.112;2022-12-18T09:00:19;71.07;;;30.58;;
50988;SDS011;37008;52.210;21.112;2022-12-18T09:02:45;61.10;;;29.27;;
50988;SDS011;37008;52.210;21.112;2022-12-18T09:05:10;61.58;;;28.50;;
50988;SDS011;37008;52.210;21.112;2022-12-18T09:07:36;62.60;;;29.00;;
50988;SDS011;37008;52.210;21.112;2022-12-18T09:10:02;63.90;;;27.42;;
50988;SDS011;37008;52.210;21.112;2022-12-18T09:12:28;56.78;;;24.70;;
50988;SDS011;37008;52.210;21.112;2022-12-18T09:14:54;57.55;;;25.35;;
50988;SDS011;37008;52.210;21.112;2022-12-18T09:17:21;67.60;;;29.25;;
50988;SDS011;37008;52.210;21.112;2022-12-18T09:19:46;56.55;;;26.67;;
50988;SDS011;37008;52.210;21.112;2022-12-18T09:22:12;56.22;;;27.60;;
50988;SDS011;37008;52.210;21.112;2022-12-18T09:24:38;56.97;;;26.00;;
50988;SDS011;37008;52.210;21.112;2022-12-18T09:27:03;60.88;;;29.10;;
50988;SDS011;37008;52.210;21.112;2022-12-18T09:29:29;66.57;;;28.98;;
50988;SDS011;37008;52.210;21.112;2022-12-18T09:31:54;60.08;;;27.80;;
50988;SDS011;37008;52.210;21.112;2022-12-18T09:34:20;66.57;;;31.50;;
50988;SDS011;37008;52.210;21.112;2022-12-18T09:36:46;93.70;;;43.95;;
50988;SDS011;37008;52.210;21.112;2022-12-18T09:39:12;63.55;;;30.50;;
50988;SDS011;37008;52.210;21.112;2022-12-18T09:47:07;60.28;;;27.48;;
50988;SDS011;37008;52.210;21.112;2022-12-18T09:49:58;52.90;;;26.55;;
50988;SDS011;37008;52.210;21.112;2022-12-18T09:52:35;56.72;;;26.50;;
50988;SDS011;37008;52.210;21.112;2022-12-18T09:57:47;55.90;;;26.05;;
50988;SDS011;37008;52.210;21.112;2022-12-18T10:00:21;50.92;;;26.42;;
50988;SDS011;37008;52.210;21.112;2022-12-18T10:02:48;54.80;;;27.02;;
50988;SDS011;37008;52.210;21.112;2022-12-18T10:05:17;66.45;;;30.85;;
50988;SDS011;37008;52.210;21.112;2022-12-18T10:08:13;95.80;;;39.38;;
50988;SDS011;37008;52.210;21.112;2022-12-18T10:11:31;52.05;;;26.60;;
50988;SDS011;37008;52.210;21.112;2022-12-18T10:14:01;78.00;;;34.10;;
50988;SDS011;37008;52.210;21.112;2022-12-18T10:16:39;57.85;;;26.92;;
50988;SDS011;37008;52.210;21.112;2022-12-18T10:22:10;71.88;;;31.55;;
50988;SDS011;37008;52.210;21.112;2022-12-18T10:25:37;60.20;;;29.77;;
50988;SDS011;37008;52.210;21.112;2022-12-18T10:27:46;60.03;;;28.50;;
50988;SDS011;37008;52.210;21.112;2022-12-18T10:30:17;61.72;;;30.83;;
50988;SDS011;37008;52.210;21.112;2022-12-18T10:32:45;67.10;;;31.35;;
50988;SDS011;37008;52.210;21.112;2022-12-18T10:35:18;64.40;;;30.67;;
50988;SDS011;37008;52.210;21.112;2022-12-18T10:38:02;59.87;;;28.37;;
50988;SDS011;37008;52.210;21.112;2022-12-18T10:40:47;67.55;;;31.77;;
50988;SDS011;37008;52.210;21.112;2022-12-18T10:48:33;75.70;;;34.92;;
50988;SDS011;37008;52.210;21.112;2022-12-18T10:51:01;62.72;;;31.55;;
50988;SDS011;37008;52.210;21.112;2022-12-18T10:53:29;63.72;;;32.35;;
50988;SDS011;37008;52.210;21.112;2022-12-18T10:55:56;67.18;;;31.40;;
50988;SDS011;37008;52.210;21.112;2022-12-18T11:06:06;63.35;;;31.17;;
50988;SDS011;37008;52.210;21.112;2022-12-18T11:08:40;89.20;;;36.97;;
50988;SDS011;37008;52.210;21.112;2022-12-18T11:11:28;82.13;;;35.05;;
50988;SDS011;37008;52.210;21.112;2022-12-18T11:16:42;70.60;;;31.48;;
50988;SDS011;37008;52.210;21.112;2022-12-18T11:19:31;67.88;;;33.35;;
50988;SDS011;37008;52.210;21.112;2022-12-18T11:21:57;67.57;;;31.27;;
50988;SDS011;37008;52.210;21.112;2022-12-18T11:24:34;73.18;;;32.40;;
50988;SDS011;37008;52.210;21.112;2022-12-18T11:27:02;71.28;;;31.50;;
50988;SDS011;37008;52.210;21.112;2022-12-18T11:29:33;62.90;;;31.30;;
50988;SDS011;37008;52.210;21.112;2022-12-18T11:35:15;61.97;;;29.95;;
50988;SDS011;37008;52.210;21.112;2022-12-18T11:37:50;62.90;;;29.95;;
50988;SDS011;37008;52.210;21.112;2022-12-18T11:40:26;62.35;;;31.90;;
50988;SDS011;37008;52.210;21.112;2022-12-18T11:43:02;64.18;;;29.88;;
50988;SDS011;37008;52.210;21.112;2022-12-18T11:45:45;60.72;;;30.30;;
50988;SDS011;37008;52.210;21.112;2022-12-18T11:48:29;72.05;;;31.63;;
50988;SDS011;37008;52.210;21.112;2022-12-18T11:50:59;64.35;;;31.70;;
50988;SDS011;37008;52.210;21.112;2022-12-18T11:53:28;67.97;;;30.80;;
50988;SDS011;37008;52.210;21.112;2022-12-18T12:07:00;71.43;;;33.50;;
50988;SDS011;37008;52.210;21.112;2022-12-18T12:09:32;63.53;;;30.77;;
50988;SDS011;37008;52.210;21.112;2022-12-18T12:22:47;67.63;;;32.00;;
50988;SDS011;37008;52.210;21.112;2022-12-18T12:25:37;66.55;;;31.55;;
50988;SDS011;37008;52.210;21.112;2022-12-18T12:28:57;62.08;;;31.75;;
50988;SDS011;37008;52.210;21.112;2022-12-18T12:31:19;61.58;;;31.55;;
50988;SDS011;37008;52.210;21.112;2022-12-18T12:37:15;70.25;;;32.35;;
50988;SDS011;37008;52.210;21.112;2022-12-18T12:39:45;69.30;;;33.38;;
50988;SDS011;37008;52.210;21.112;2022-12-18T12:42:18;73.53;;;33.75;;
50988;SDS011;37008;52.210;21.112;2022-12-18T12:45:13;71.00;;;35.33;;
50988;SDS011;37008;52.210;21.112;2022-12-18T12:47:43;73.30;;;34.13;;
50988;SDS011;37008;52.210;21.112;2022-12-18T12:50:14;78.85;;;36.13;;
50988;SDS011;37008;52.210;21.112;2022-12-18T12:52:44;106.22;;;43.70;;
50988;SDS011;37008;52.210;21.112;2022-12-18T12:55:22;132.68;;;50.22;;
50988;SDS011;37008;52.210;21.112;2022-12-18T13:00:28;107.22;;;44.90;;
50988;SDS011;37008;52.210;21.112;2022-12-18T13:05:54;98.05;;;44.05;;
50988;SDS011;37008;52.210;21.112;2022-12-18T13:08:26;100.70;;;45.15;;
50988;SDS011;37008;52.210;21.112;2022-12-18T13:10:54;79.85;;;39.45;;
50988;SDS011;37008;52.210;21.112;2022-12-18T13:16:20;82.18;;;38.03;;
50988;SDS011;37008;52.210;21.112;2022-12-18T13:19:18;88.22;;;43.47;;
50988;SDS011;37008;52.210;21.112;2022-12-18T13:21:47;99.97;;;46.47;;
50988;SDS011;37008;52.210;21.112;2022-12-18T13:24:26;92.70;;;42.85;;
50988;SDS011;37008;52.210;21.112;2022-12-18T13:26:55;77.68;;;35.80;;
50988;SDS011;37008;52.210;21.112;2022-12-18T13:29:42;99.13;;;41.72;;
50988;SDS011;37008;52.210;21.112;2022-12-18T13:32:28;102.45;;;42.35;;
50988;SDS011;37008;52.210;21.112;2022-12-18T13:37:51;79.88;;;37.42;;
50988;SDS011;37008;52.210;21.112;2022-12-18T13:45:47;89.47;;;40.40;;
50988;SDS011;37008;52.210;21.112;2022-12-18T13:48:24;89.40;;;44.33;;
50988;SDS011;37008;52.210;21.112;2022-12-18T13:51:01;80.72;;;39.17;;
50988;SDS011;37008;52.210;21.112;2022-12-18T13:53:33;81.90;;;42.55;;
50988;SDS011;37008;52.210;21.112;2022-12-18T13:55:59;105.47;;;51.22;;
50988;SDS011;37008;52.210;21.112;2022-12-18T13:58:26;93.90;;;46.03;;
50988;SDS011;37008;52.210;21.112;2022-12-18T14:00:53;83.00;;;41.17;;
50988;SDS011;37008;52.210;21.112;2022-12-18T14:03:22;92.97;;;45.33;;
50988;SDS011;37008;52.210;21.112;2022-12-18T14:05:59;87.50;;;43.83;;
50988;SDS011;37008;52.210;21.112;2022-12-18T14:08:35;127.22;;;60.03;;
50988;SDS011;37008;52.210;21.112;2022-12-18T14:11:06;86.22;;;41.28;;
50988;SDS011;37008;52.210;21.112;2022-12-18T14:13:42;85.90;;;43.25;;
50988;SDS011;37008;52.210;21.112;2022-12-18T14:16:11;74.55;;;36.55;;
50988;SDS011;37008;52.210;21.112;2022-12-18T14:18:47;75.40;;;35.55;;
50988;SDS011;37008;52.210;21.112;2022-12-18T14:21:25;76.13;;;35.28;;
50988;SDS011;37008;52.210;21.112;2022-12-18T14:26:47;85.95;;;39.47;;
50988;SDS011;37008;52.210;21.112;2022-12-18T14:29:34;71.13;;;35.03;;
50988;SDS011;37008;52.210;21.112;2022-12-18T14:32:13;71.53;;;33.75;;
50988;SDS011;37008;52.210;21.112;2022-12-18T14:34:42;72.65;;;36.30;;
50988;SDS011;37008;52.210;21.112;2022-12-18T14:37:12;79.05;;;36.60;;
50988;SDS011;37008;52.210;21.112;2022-12-18T14:39:39;76.70;;;36.30;;
50988;SDS011;37008;52.210;21.112;2022-12-18T14:42:05;76.93;;;38.40;;
50988;SDS011;37008;52.210;21.112;2022-12-18T14:44:30;84.72;;;41.25;;
50988;SDS011;37008;52.210;21.112;2022-12-18T14:46:56;87.10;;;42.55;;
50988;SDS011;37008;52.210;21.112;2022-12-18T14:52:01;79.30;;;38.10;;
50988;SDS011;37008;52.210;21.112;2022-12-18T14:54:31;76.55;;;38.92;;
50988;SDS011;37008;52.210;21.112;2022-12-18T14:57:00;96.10;;;47.55;;
50988;SDS011;37008;52.210;21.112;2022-12-18T14:59:28;85.68;;;46.13;;
50988;SDS011;37008;52.210;21.112;2022-12-18T15:04:43;89.22;;;41.70;;
50988;SDS011;37008;52.210;21.112;2022-12-18T15:09:42;82.45;;;41.17;;
50988;SDS011;37008;52.210;21.112;2022-12-18T15:15:43;82.30;;;38.95;;
50988;SDS011;37008;52.210;21.112;2022-12-18T15:26:18;103.82;;;45.88;;
50988;SDS011;37008;52.210;21.112;2022-12-18T15:28:47;88.00;;;40.35;;
50988;SDS011;37008;52.210;21.112;2022-12-18T15:33:39;67.88;;;33.72;;
50988;SDS011;37008;52.210;21.112;2022-12-18T15:36:11;82.53;;;36.33;;
50988;SDS011;37008;52.210;21.112;2022-12-18T15:38:38;75.35;;;35.15;;
50988;SDS011;37008;52.210;21.112;2022-12-18T15:41:22;85.97;;;36.15;;
50988;SDS011;37008;52.210;21.112;2022-12-18T15:43:49;78.13;;;34.65;;
50988;SDS011;37008;52.210;21.112;2022-12-18T15:46:17;72.78;;;35.00;;
50988;SDS011;37008;52.210;21.112;2022-12-18T15:48:45;67.10;;;34.28;;
50988;SDS011;37008;52.210;21.112;2022-12-18T15:53:54;77.07;;;40.08;;
50988;SDS011;37008;52.210;21.112;2022-12-18T15:56:23;79.30;;;39.33;;
50988;SDS011;37008;52.210;21.112;2022-12-18T15:59:09;80.03;;;39.20;;
50988;SDS011;37008;52.210;21.112;2022-12-18T16:01:39;75.05;;;36.17;;
50988;SDS011;37008;52.210;21.112;2022-12-18T16:04:06;64.72;;;32.08;;
50988;SDS011;37008;52.210;21.112;2022-12-18T16:06:34;66.28;;;32.47;;
50988;SDS011;37008;52.210;21.112;2022-12-18T16:08:59;73.50;;;34.10;;
50988;SDS011;37008;52.210;21.112;2022-12-18T16:11:26;87.03;;;49.42;;
50988;SDS011;37008;52.210;21.112;2022-12-18T16:16:43;87.90;;;46.88;;
50988;SDS011;37008;52.210;21.112;2022-12-18T16:19:12;192.20;;;85.18;;
50988;SDS011;37008;52.210;21.112;2022-12-18T16:21:38;116.47;;;54.28;;
50988;SDS011;37008;52.210;21.112;2022-12-18T16:24:05;120.90;;;58.08;;
50988;SDS011;37008;52.210;21.112;2022-12-18T16:26:34;93.40;;;48.05;;
50988;SDS011;37008;52.210;21.112;2022-12-18T16:28:59;97.32;;;49.22;;